Time;durP1;ratioP1;P1;durP2;ratioP2;P2;SDS_P1;SDS_P2;PMS_P1;PMS_P2;Temp;Humidity;BMP_temperature;BMP_pressure;BME280_temperature;BME280_humidity;BME280_pressure;Samples;Min_cycle;Max_cycle;Signal;HPM_P1;HPM_P2
2022/11/28 00:02:02;;;;;;;;;5.25;5.25;;;;;10.22;73.91;100851.75;6154168;23;46114;-77
2022/11/28 00:04:27;;;;;;;;;7.25;6.50;;;;;10.13;74.00;100831.56;6182774;23;45332;-78
2022/11/28 00:06:53;;;;;;;;;7.50;7.50;;;;;10.17;74.11;100841.22;6184843;23;45348;-77
2022/11/28 00:09:20;;;;;;;;;5.75;5.00;;;;;10.22;74.26;100838.59;6184424;23;45348;-78
2022/11/28 00:11:47;;;;;;;;;6.75;6.75;;;;;10.22;74.50;100844.72;6182474;23;46354;-77
2022/11/28 00:14:15;;;;;;;;;7.00;7.00;;;;;10.16;74.75;100832.47;6179829;23;45811;-77
2022/11/28 00:16:41;;;;;;;;;6.00;5.00;;;;;10.18;74.74;100835.06;6156035;23;45277;-78
2022/11/28 00:19:07;;;;;;;;;9.50;8.75;;;;;10.25;74.87;100836.81;6155504;23;45803;-78
2022/11/28 00:21:33;;;;;;;;;9.50;9.00;;;;;10.28;74.73;100822.81;6183374;23;45577;-76
2022/11/28 00:24:00;;;;;;;;;10.50;9.00;;;;;10.29;74.98;100816.66;6185038;23;45261;-77
2022/11/28 00:26:28;;;;;;;;;7.00;6.50;;;;;10.24;74.99;100807.91;6184612;23;45399;-77
2022/11/28 00:28:55;;;;;;;;;7.50;7.50;;;;;10.31;74.84;100814.91;6182792;23;45605;-76
2022/11/28 00:31:26;;;;;;;;;8.00;6.50;;;;;10.27;74.85;100821.94;6155745;23;47193;-78
2022/11/28 00:33:52;;;;;;;;;11.75;11.25;;;;;10.15;74.84;100788.59;6183253;23;45347;-77
2022/11/28 00:36:18;;;;;;;;;8.00;7.00;;;;;10.27;74.79;100811.44;6155943;23;45384;-77
2022/11/28 00:38:44;;;;;;;;;5.00;5.00;;;;;10.14;75.17;100793.88;6183326;23;45357;-77
2022/11/28 00:41:29;;;;;;;;;11.75;9.50;;;;;10.24;75.07;100815.78;6183142;23;45489;-77
2022/11/28 00:43:56;;;;;;;;;7.50;6.75;;;;;10.27;75.14;100807.91;6189591;23;45412;-79
2022/11/28 00:46:22;;;;;;;;;10.25;7.00;;;;;10.14;75.21;100792.13;6165331;23;45299;-78
2022/11/28 00:48:48;;;;;;;;;8.50;5.75;;;;;10.18;75.29;100794.72;6158806;23;45545;-78
2022/11/28 00:51:23;;;;;;;;;7.75;7.00;;;;;10.18;75.43;100790.34;6186770;23;46580;-78
2022/11/28 00:53:50;;;;;;;;;10.50;8.75;;;;;10.20;75.43;100793.84;6157688;23;46107;-79
2022/11/28 00:56:19;;;;;;;;;12.50;11.25;;;;;10.32;75.43;100800.91;6185733;23;45362;-78
2022/11/28 00:58:46;;;;;;;;;11.50;11.25;;;;;10.27;75.43;100790.38;6186667;23;45412;-78
2022/11/28 01:01:16;;;;;;;;;10.00;9.00;;;;;10.28;75.39;100786.00;6159309;23;48033;-78
2022/11/28 01:03:45;;;;;;;;;9.75;8.75;;;;;10.31;75.48;100796.50;6159479;23;45306;-78
2022/11/28 01:06:11;;;;;;;;;12.50;11.00;;;;;10.26;75.71;100783.31;6186384;23;45180;-78
2022/11/28 01:08:37;;;;;;;;;9.75;7.75;;;;;10.26;75.38;100785.06;6186748;23;45229;-78
2022/11/28 01:11:05;;;;;;;;;10.25;6.75;;;;;10.33;75.46;100800.88;6158535;23;47053;-78
2022/11/28 01:13:31;;;;;;;;;8.25;7.75;;;;;10.27;75.39;100771.06;6186323;23;45278;-78
2022/11/28 01:15:57;;;;;;;;;8.50;8.50;;;;;10.36;75.57;100794.75;6159904;23;45631;-79
2022/11/28 01:18:22;;;;;;;;;12.75;11.00;;;;;10.34;75.78;100791.22;6159601;23;45485;-79
2022/11/28 01:20:48;;;;;;;;;10.25;9.75;;;;;10.42;75.76;100801.75;6159543;23;48024;-79
2022/11/28 01:23:13;;;;;;;;;8.25;7.00;;;;;10.42;75.73;100809.63;6186673;23;45217;-79
2022/11/28 01:25:39;;;;;;;;;10.25;9.50;;;;;10.38;75.61;100804.38;6187292;23;45356;-79
2022/11/28 01:28:06;;;;;;;;;11.50;8.00;;;;;10.34;75.73;100791.22;6158798;23;45254;-79
2022/11/28 01:30:32;;;;;;;;;11.50;8.50;;;;;10.40;75.63;100806.13;6186624;23;46456;-79
2022/11/28 01:32:57;;;;;;;;;9.25;9.25;;;;;10.45;75.68;100818.44;6186566;23;45177;-79
2022/11/28 01:35:23;;;;;;;;;11.00;8.00;;;;;10.41;75.80;100805.25;6186798;23;45455;-79
2022/11/28 01:37:48;;;;;;;;;9.25;7.75;;;;;10.34;75.60;100793.88;6186089;23;45360;-79
2022/11/28 01:40:16;;;;;;;;;10.00;8.00;;;;;10.42;75.86;100809.63;6186834;23;45407;-79
2022/11/28 01:42:41;;;;;;;;;10.50;9.50;;;;;10.45;75.72;100805.25;6159094;23;45489;-79
2022/11/28 01:45:11;;;;;;;;;10.75;10.75;;;;;10.53;75.78;100827.19;6159972;23;45293;-79
2022/11/28 01:47:36;;;;;;;;;13.00;12.00;;;;;10.52;75.84;100822.78;6159561;23;45442;-79
2022/11/28 01:50:04;;;;;;;;;11.00;10.50;;;;;10.48;75.65;100814.91;6159234;23;46076;-79
2022/11/28 01:52:29;;;;;;;;;10.00;10.00;;;;;10.48;76.02;100801.75;6186276;23;45263;-79
2022/11/28 01:54:59;;;;;;;;;11.75;11.50;;;;;10.62;75.81;100826.28;6186804;23;45495;-79
2022/11/28 01:57:25;;;;;;;;;9.50;9.50;;;;;10.62;75.85;100830.66;6159579;23;45434;-79
2022/11/28 02:00:11;;;;;;;;;8.50;8.50;;;;;10.64;75.67;100831.50;6186980;23;46425;-79
2022/11/28 02:02:45;;;;;;;;;8.00;7.50;;;;;10.57;75.85;100817.50;6159408;23;45115;-79
2022/11/28 02:05:11;;;;;;;;;11.00;9.75;;;;;10.57;75.98;100813.13;6186836;23;45174;-79
2022/11/28 02:07:37;;;;;;;;;12.25;12.00;;;;;10.64;75.66;100836.78;6186255;23;45163;-79
2022/11/28 02:10:07;;;;;;;;;11.00;10.25;;;;;10.66;75.80;100832.41;6159377;23;47786;-79
2022/11/28 02:12:32;;;;;;;;;11.50;10.75;;;;;10.67;75.99;100834.16;6185617;23;45375;-79
2022/11/28 02:15:15;;;;;;;;;12.00;10.00;;;;;10.66;75.85;100830.63;6186779;23;45307;-79
2022/11/28 02:17:55;;;;;;;;;10.00;10.00;;;;;10.57;75.97;100810.47;6186423;23;45319;-79
2022/11/28 02:20:45;;;;;;;;;10.75;8.50;;;;;10.64;76.06;100824.53;6186284;23;45390;-79
2022/11/28 02:23:49;;;;;;;;;12.00;10.50;;;;;10.67;75.92;100815.75;6158786;23;45370;-79
2022/11/28 02:26:20;;;;;;;;;11.75;11.75;;;;;10.64;76.23;100811.34;6127648;23;45458;-79
2022/11/28 02:29:07;;;;;;;;;13.00;12.00;;;;;10.58;76.27;100791.19;6186340;23;45524;-80
2022/11/28 02:32:10;;;;;;;;;9.50;7.50;;;;;10.70;76.36;100818.34;6186059;23;46193;-79
2022/11/28 02:34:53;;;;;;;;;8.75;8.75;;;;;10.73;76.21;100810.44;6158886;23;45233;-79
2022/11/28 02:37:31;;;;;;;;;11.50;9.50;;;;;10.70;76.54;100805.19;6186613;23;45253;-79
2022/11/28 02:40:27;;;;;;;;;10.25;7.75;;;;;10.80;76.38;100806.91;6159154;23;45119;-79
2022/11/28 02:43:34;;;;;;;;;13.00;11.00;;;;;10.82;76.29;100806.03;6185987;23;45448;-79
2022/11/28 02:46:32;;;;;;;;;8.25;8.25;;;;;10.85;76.08;100805.13;6103876;23;45351;-79
2022/11/28 02:49:05;;;;;;;;;10.25;8.25;;;;;10.74;76.24;100783.22;6186280;23;45216;-79
2022/11/28 02:51:42;;;;;;;;;13.00;12.50;;;;;10.86;76.21;100800.75;6186268;23;45369;-79
2022/11/28 02:54:12;;;;;;;;;11.25;9.50;;;;;10.78;76.07;100777.06;6186170;23;45295;-79
2022/11/28 02:56:37;;;;;;;;;11.75;11.00;;;;;10.85;76.17;100780.53;6185842;23;45154;-79
2022/11/28 02:59:03;;;;;;;;;8.50;8.00;;;;;10.92;76.02;100782.28;6186478;23;45142;-79
2022/11/28 03:01:35;;;;;;;;;10.25;10.25;;;;;10.86;76.04;100758.59;6186045;23;45904;-79
2022/11/28 03:04:20;;;;;;;;;12.50;10.50;;;;;10.91;75.83;100760.34;6186095;23;45175;-80
2022/11/28 03:07:04;;;;;;;;;14.75;11.75;;;;;10.86;75.86;100767.38;6186232;23;45169;-80
2022/11/28 03:10:09;;;;;;;;;11.00;9.00;;;;;10.87;76.05;100769.13;6186312;23;45163;-79
2022/11/28 03:12:46;;;;;;;;;14.75;12.25;;;;;10.84;75.99;100777.03;6141732;23;45539;-79
2022/11/28 03:15:17;;;;;;;;;11.75;10.75;;;;;10.73;76.12;100763.06;6186053;23;45246;-80
2022/11/28 03:17:59;;;;;;;;;9.50;8.75;;;;;10.80;75.98;100781.44;6159244;23;45300;-79
2022/11/28 03:20:50;;;;;;;;;12.50;11.50;;;;;10.80;76.03;100777.94;6160105;23;45614;-80
2022/11/28 03:23:20;;;;;;;;;14.50;14.50;;;;;10.85;75.97;100785.81;6160240;23;45690;-79
2022/11/28 03:25:59;;;;;;;;;11.00;9.50;;;;;10.78;76.06;100779.72;6185309;23;46146;-79
2022/11/28 03:28:32;;;;;;;;;12.25;9.00;;;;;10.82;76.17;100784.97;6159804;23;45419;-79
2022/11/28 03:31:03;;;;;;;;;12.50;11.00;;;;;10.81;76.29;100785.81;6160182;23;45301;-79
2022/11/28 03:33:33;;;;;;;;;11.75;11.75;;;;;10.86;76.17;100788.44;6187183;23;45305;-80
2022/11/28 03:36:22;;;;;;;;;11.25;9.50;;;;;10.86;76.05;100792.84;6186166;23;45208;-79
2022/11/28 03:38:53;;;;;;;;;12.50;8.50;;;;;10.90;76.50;100798.06;6165162;23;45303;-79
2022/11/28 03:41:34;;;;;;;;;7.50;6.50;;;;;10.84;76.42;100786.69;6160003;23;45238;-79
2022/11/28 03:44:06;;;;;;;;;9.75;8.00;;;;;10.91;76.20;100799.84;6159686;23;45378;-80
2022/11/28 03:46:43;;;;;;;;;8.75;8.75;;;;;10.87;76.22;100782.28;6187159;23;46347;-80
2022/11/28 03:49:14;;;;;;;;;11.25;8.75;;;;;10.88;76.25;100777.88;6160056;23;45386;-79
2022/11/28 03:51:58;;;;;;;;;7.50;7.50;;;;;10.96;76.07;100784.91;6187469;23;45205;-79
2022/11/28 03:54:57;;;;;;;;;12.75;11.00;;;;;10.98;76.15;100776.97;6186931;23;45235;-79
2022/11/28 03:57:34;;;;;;;;;10.00;10.00;;;;;11.00;76.11;100778.72;6159531;23;48630;-80
2022/11/28 04:00:04;;;;;;;;;13.75;11.00;;;;;10.92;76.32;100761.22;6159766;23;45309;-80
2022/11/28 04:02:37;;;;;;;;;12.50;9.00;;;;;10.92;76.40;100754.16;6160195;23;45547;-80
2022/11/28 04:05:14;;;;;;;;;12.00;11.25;;;;;10.92;76.19;100754.16;6187144;23;45348;-79
2022/11/28 04:08:11;;;;;;;;;13.00;11.75;;;;;11.01;76.32;100775.22;6184957;23;46695;-80
2022/11/28 04:10:40;;;;;;;;;9.00;9.00;;;;;11.02;76.42;100782.22;6104017;23;45298;-80
2022/11/28 04:13:37;;;;;;;;;12.00;12.00;;;;;11.00;76.01;100783.97;6186623;23;45353;-79
2022/11/28 04:16:05;;;;;;;;;3.50;3.50;;;;;10.99;76.11;100784.00;6187354;23;45229;-80
2022/11/28 04:18:46;;;;;;;;;12.75;11.50;;;;;10.98;75.99;100779.59;6186888;23;46255;-79
2022/11/28 04:21:32;;;;;;;;;15.00;12.00;;;;;10.93;76.03;100784.91;6186747;23;45303;-79
2022/11/28 04:24:02;;;;;;;;;12.50;11.75;;;;;10.82;76.14;100753.38;6186971;23;45455;-79
2022/11/28 04:26:33;;;;;;;;;12.50;11.50;;;;;10.86;76.25;100766.50;6158149;23;45443;-79
2022/11/28 04:29:04;;;;;;;;;14.25;13.00;;;;;10.87;76.22;100777.03;6186887;23;45425;-80
2022/11/28 04:31:31;;;;;;;;;8.75;7.00;;;;;10.79;76.22;100773.53;6159664;23;45421;-79
2022/11/28 04:34:00;;;;;;;;;16.50;15.50;;;;;10.76;76.35;100777.06;6186816;23;45172;-79
2022/11/28 04:36:30;;;;;;;;;14.00;13.00;;;;;10.78;76.32;100777.94;6186309;23;45414;-80
2022/11/28 04:38:56;;;;;;;;;16.00;13.75;;;;;10.86;76.64;100796.34;6159724;23;46600;-79
2022/11/28 04:41:36;;;;;;;;;15.00;13.25;;;;;10.87;76.46;100808.63;6159383;23;45678;-80
2022/11/28 04:44:12;;;;;;;;;13.25;12.75;;;;;10.79;76.83;100786.72;6159858;23;45253;-80
2022/11/28 04:46:48;;;;;;;;;13.50;12.25;;;;;10.84;76.56;100787.56;6186576;23;45324;-80
2022/11/28 04:49:16;;;;;;;;;14.25;12.00;;;;;10.75;76.67;100777.97;6185852;23;47060;-80
2022/11/28 04:51:58;;;;;;;;;14.50;12.50;;;;;10.86;76.77;100801.63;6186943;23;45404;-79
2022/11/28 04:54:32;;;;;;;;;12.50;12.50;;;;;10.85;76.86;100802.47;6186767;23;45280;-80
2022/11/28 04:57:10;;;;;;;;;13.00;13.00;;;;;10.86;76.79;100793.72;6158904;23;45299;-80
2022/11/28 04:59:38;;;;;;;;;14.00;13.00;;;;;10.88;77.07;100789.31;6186760;23;45656;-80
2022/11/28 05:02:05;;;;;;;;;12.75;10.25;;;;;10.87;76.91;100771.75;6159795;23;45164;-80
2022/11/28 05:04:34;;;;;;;;;15.75;13.75;;;;;10.82;76.83;100757.72;6186896;23;45149;-80
2022/11/28 05:07:04;;;;;;;;;13.25;12.00;;;;;10.92;77.03;100785.78;6159755;23;45622;-80
2022/11/28 05:09:32;;;;;;;;;13.50;11.75;;;;;10.89;76.78;100780.53;6186561;23;45155;-79
2022/11/28 05:11:58;;;;;;;;;13.00;13.00;;;;;10.88;76.91;100767.34;6185905;23;45123;-80
2022/11/28 05:14:23;;;;;;;;;16.50;13.75;;;;;10.88;76.90;100764.72;6186944;23;45739;-79
2022/11/28 05:16:49;;;;;;;;;16.75;15.00;;;;;10.94;76.90;100783.16;6186910;23;45378;-79
2022/11/28 05:19:15;;;;;;;;;15.00;11.75;;;;;10.89;77.00;100775.25;6159343;23;46576;-79
2022/11/28 05:21:40;;;;;;;;;13.75;12.75;;;;;10.95;76.78;100793.66;6186620;23;45295;-80
2022/11/28 05:24:07;;;;;;;;;14.25;11.25;;;;;10.93;76.82;100790.19;6187109;23;45278;-80
2022/11/28 05:26:34;;;;;;;;;15.75;12.50;;;;;10.94;76.96;100781.38;6186514;23;45456;-80
2022/11/28 05:29:00;;;;;;;;;13.25;13.25;;;;;10.96;76.96;100776.09;6159770;23;45569;-80
2022/11/28 05:31:26;;;;;;;;;14.25;12.75;;;;;10.93;77.04;100777.00;6186628;23;45162;-80
2022/11/28 05:33:53;;;;;;;;;14.00;13.00;;;;;10.95;77.22;100777.84;6186680;23;45118;-80
2022/11/28 05:36:18;;;;;;;;;12.75;10.00;;;;;10.98;76.98;100791.00;6185713;23;45487;-79
2022/11/28 05:38:44;;;;;;;;;13.75;12.00;;;;;10.97;76.95;100788.41;6184494;23;48285;-79
2022/11/28 05:41:18;;;;;;;;;11.50;8.75;;;;;11.01;77.10;100779.59;6186124;23;45300;-79
2022/11/28 05:43:44;;;;;;;;;12.50;9.50;;;;;10.93;76.90;100769.13;6159469;23;45439;-79
2022/11/28 05:46:09;;;;;;;;;11.75;11.00;;;;;11.03;76.95;100778.69;6186331;23;45367;-79
2022/11/28 05:48:34;;;;;;;;;12.50;11.75;;;;;10.98;77.08;100782.25;6186772;23;46034;-79
2022/11/28 05:51:03;;;;;;;;;15.25;12.75;;;;;10.97;77.06;100778.72;6186447;23;45288;-79
2022/11/28 05:53:30;;;;;;;;;14.25;11.50;;;;;10.99;76.67;100782.25;6159711;23;45283;-80
2022/11/28 05:55:56;;;;;;;;;10.50;9.00;;;;;10.96;76.77;100765.56;6186605;23;45209;-79
2022/11/28 05:58:21;;;;;;;;;14.75;14.75;;;;;10.92;76.73;100769.97;6186724;23;45584;-79
2022/11/28 06:00:49;;;;;;;;;15.50;12.00;;;;;11.00;76.78;100789.25;6159651;23;45258;-80
2022/11/28 06:03:19;;;;;;;;;13.00;12.00;;;;;10.91;76.86;100777.91;6186748;23;45339;-80
2022/11/28 06:05:44;;;;;;;;;12.00;11.25;;;;;10.92;76.83;100777.88;6159273;23;45295;-79
2022/11/28 06:08:11;;;;;;;;;12.75;10.75;;;;;10.88;77.05;100781.44;6186374;23;46395;-79
2022/11/28 06:10:36;;;;;;;;;15.50;13.25;;;;;10.80;76.91;100770.06;6186554;23;45184;-80
2022/11/28 06:13:02;;;;;;;;;16.25;14.00;;;;;10.88;77.04;100789.31;6186334;23;45536;-79
2022/11/28 06:15:30;;;;;;;;;11.75;11.50;;;;;10.79;77.27;100787.59;6184320;23;45229;-80
2022/11/28 06:17:55;;;;;;;;;11.00;10.00;;;;;10.82;77.35;100797.22;6186208;23;46330;-79
2022/11/28 06:20:20;;;;;;;;;12.75;10.75;;;;;10.89;77.07;100813.91;6186356;23;45427;-79
2022/11/28 06:22:46;;;;;;;;;14.00;12.50;;;;;10.76;77.09;100794.63;6186548;23;45411;-79
2022/11/28 06:25:11;;;;;;;;;15.25;13.50;;;;;10.77;77.15;100796.38;6186598;23;45347;-80
2022/11/28 06:27:37;;;;;;;;;13.00;11.00;;;;;10.76;77.13;100800.75;6186288;23;45390;-79
2022/11/28 06:30:04;;;;;;;;;15.00;13.75;;;;;10.80;77.11;100815.69;6186576;23;45293;-79
2022/11/28 06:32:29;;;;;;;;;14.75;14.75;;;;;10.79;77.40;100816.56;6186618;23;45399;-80
2022/11/28 06:34:55;;;;;;;;;17.00;13.00;;;;;10.71;77.08;100812.19;6186285;23;45200;-80
2022/11/28 06:37:20;;;;;;;;;12.00;12.00;;;;;10.75;77.00;100822.72;6185588;23;46233;-80
2022/11/28 06:39:45;;;;;;;;;9.50;9.50;;;;;10.73;77.09;100824.47;6186515;23;45106;-80
2022/11/28 06:42:13;;;;;;;;;13.00;12.00;;;;;10.65;77.21;100812.22;6186173;23;45222;-79
2022/11/28 06:44:39;;;;;;;;;7.50;7.25;;;;;10.65;77.41;100820.13;6184353;23;45773;-79
2022/11/28 06:47:04;;;;;;;;;13.50;10.00;;;;;10.63;77.44;100830.66;6186016;23;45507;-79
2022/11/28 06:49:29;;;;;;;;;12.00;10.75;;;;;10.62;77.47;100826.28;6185861;23;45243;-80
2022/11/28 06:51:55;;;;;;;;;12.75;9.50;;;;;10.59;77.48;100816.63;6185813;23;45372;-79
2022/11/28 06:54:20;;;;;;;;;11.75;11.75;;;;;10.60;77.36;100822.75;6185482;23;45264;-80
2022/11/28 06:56:46;;;;;;;;;12.25;11.00;;;;;10.62;77.58;100821.00;6159100;23;47236;-81
2022/11/28 06:59:11;;;;;;;;;13.75;12.00;;;;;10.65;77.25;100828.91;6183848;23;45262;-82
2022/11/28 07:01:37;;;;;;;;;12.25;12.25;;;;;10.67;77.63;100835.03;6158786;23;45496;-83
2022/11/28 07:04:02;;;;;;;;;18.00;13.25;;;;;10.67;77.29;100836.81;6184365;23;45417;-82
2022/11/28 07:06:28;;;;;;;;;10.00;10.00;;;;;10.61;77.18;100835.03;6185918;23;45455;-83
2022/11/28 07:08:56;;;;;;;;;15.75;13.00;;;;;10.58;77.33;100843.84;6186148;23;45145;-82
2022/11/28 07:11:27;;;;;;;;;12.25;11.75;;;;;10.64;77.34;100852.56;6185952;23;45229;-81
2022/11/28 07:13:54;;;;;;;;;11.50;9.75;;;;;10.65;77.61;100854.34;6159031;23;45516;-82
2022/11/28 07:16:25;;;;;;;;;10.75;9.75;;;;;10.63;77.38;100849.06;6185720;23;46225;-82
2022/11/28 07:18:54;;;;;;;;;13.00;11.25;;;;;10.65;77.22;100846.44;6186286;23;45634;-81
2022/11/28 07:21:20;;;;;;;;;9.00;8.75;;;;;10.64;77.40;100847.31;6159368;23;45241;-82
2022/11/28 07:23:47;;;;;;;;;10.50;10.50;;;;;10.62;77.41;100849.09;6184009;23;45586;-82
2022/11/28 07:26:16;;;;;;;;;11.75;10.00;;;;;10.62;77.35;100838.56;6158358;23;46877;-82
2022/11/28 07:28:42;;;;;;;;;7.25;7.25;;;;;10.57;77.53;100841.19;6185496;23;45304;-82
2022/11/28 07:31:09;;;;;;;;;11.00;11.00;;;;;10.60;77.25;100841.19;6185839;23;45190;-82
2022/11/28 07:33:34;;;;;;;;;12.25;10.50;;;;;10.46;77.74;100825.44;6158979;23;46046;-82
2022/11/28 07:36:05;;;;;;;;;11.00;10.00;;;;;10.51;77.53;100834.19;6184969;23;46161;-81
2022/11/28 07:38:34;;;;;;;;;12.25;10.50;;;;;10.49;77.25;100838.56;6158878;23;45776;-81
2022/11/28 07:41:04;;;;;;;;;13.25;12.75;;;;;10.51;77.17;100839.47;6158736;23;45277;-82
2022/11/28 07:43:33;;;;;;;;;12.25;12.00;;;;;10.52;77.43;100842.97;6185526;23;45423;-81
2022/11/28 07:46:01;;;;;;;;;12.25;10.50;;;;;10.45;77.23;100826.31;6185311;23;46763;-78
2022/11/28 07:48:27;;;;;;;;;11.75;8.00;;;;;10.48;77.24;100833.34;6185391;23;45250;-79
2022/11/28 07:50:52;;;;;;;;;11.25;9.50;;;;;10.54;77.23;100841.22;6158344;23;45279;-79
2022/11/28 07:53:17;;;;;;;;;10.00;8.00;;;;;10.55;77.16;100841.19;6185803;23;45428;-79
2022/11/28 07:55:42;;;;;;;;;13.00;13.00;;;;;10.52;77.28;100832.44;6183070;23;47074;-79
2022/11/28 07:58:10;;;;;;;;;14.75;13.25;;;;;10.58;77.24;100843.84;6185489;23;45216;-86
2022/11/28 08:00:36;;;;;;;;;10.75;10.25;;;;;10.60;76.82;100849.97;6158918;23;45389;-80
2022/11/28 08:03:04;;;;;;;;;7.25;7.25;;;;;10.63;77.21;100858.75;6185700;23;45319;-82
2022/11/28 08:05:29;;;;;;;;;10.00;9.00;;;;;10.54;76.75;100852.63;6159653;23;46258;-80
2022/11/28 08:07:55;;;;;;;;;10.50;7.50;;;;;10.63;76.79;100866.63;6187238;23;45092;-80
2022/11/28 08:10:21;;;;;;;;;8.00;8.00;;;;;10.66;76.60;100862.22;6187281;23;45614;-81
2022/11/28 08:12:47;;;;;;;;;8.00;6.25;;;;;10.55;76.66;100851.72;6159885;23;45679;-81
2022/11/28 08:15:12;;;;;;;;;8.50;7.00;;;;;10.71;76.58;100878.03;6184647;23;47080;-79
2022/11/28 08:17:37;;;;;;;;;8.00;8.00;;;;;10.63;76.46;100870.13;6187100;23;45225;-79
2022/11/28 08:20:03;;;;;;;;;12.25;7.00;;;;;10.64;76.54;100865.75;6160988;23;45413;-83
2022/11/28 08:22:29;;;;;;;;;13.00;11.00;;;;;10.68;76.73;100870.13;6186797;23;45452;-80
2022/11/28 08:24:54;;;;;;;;;13.75;10.75;;;;;10.69;76.63;100867.50;6186709;23;45308;-80
2022/11/28 08:27:19;;;;;;;;;13.00;10.00;;;;;10.78;76.46;100885.03;6186726;23;45348;-81
2022/11/28 08:29:47;;;;;;;;;13.50;10.75;;;;;10.79;76.40;100878.88;6187062;23;45351;-82
2022/11/28 08:32:12;;;;;;;;;13.25;10.00;;;;;10.64;76.27;100848.22;6186759;23;45470;-81
2022/11/28 08:34:38;;;;;;;;;9.75;8.25;;;;;10.71;76.22;100863.09;6186443;23;45295;-83
2022/11/28 08:37:03;;;;;;;;;11.00;7.50;;;;;10.68;76.12;100859.59;6186343;23;45244;-83
2022/11/28 08:39:29;;;;;;;;;13.25;10.00;;;;;10.67;76.03;100852.59;6187452;23;45302;-83
2022/11/28 08:41:56;;;;;;;;;13.00;10.50;;;;;10.72;76.14;100866.59;6186799;23;45162;-84
2022/11/28 08:44:22;;;;;;;;;12.25;9.50;;;;;10.63;76.05;100851.72;6160176;23;46289;-82
2022/11/28 08:46:47;;;;;;;;;8.50;7.50;;;;;10.74;76.00;100875.38;6159682;23;45245;-83
2022/11/28 08:49:12;;;;;;;;;11.00;8.50;;;;;10.76;75.72;100874.50;6186629;23;45278;-83
2022/11/28 08:51:38;;;;;;;;;12.50;7.25;;;;;10.83;76.24;100885.91;6159458;23;45203;-82
2022/11/28 08:54:03;;;;;;;;;12.50;12.00;;;;;10.75;75.92;100871.88;6186429;23;46381;-82
2022/11/28 08:56:29;;;;;;;;;8.25;8.25;;;;;10.80;76.20;100873.63;6184422;23;45309;-84
2022/11/28 08:58:54;;;;;;;;;8.50;8.00;;;;;10.77;75.84;100856.94;6160608;23;45357;-85
2022/11/28 09:01:24;;;;;;;;;8.00;8.00;;;;;10.93;76.00;100881.47;6186666;23;45395;-82
2022/11/28 09:03:51;;;;;;;;;9.00;7.00;;;;;10.92;75.94;100869.19;6186231;23;45628;-85
2022/11/28 09:06:17;;;;;;;;;9.25;8.50;;;;;10.87;75.69;100857.78;6184607;23;45245;-85
2022/11/28 09:08:44;;;;;;;;;9.00;8.25;;;;;10.87;75.72;100852.53;6184213;23;45220;-83
2022/11/28 09:11:39;;;;;;;;;11.00;10.50;;;;;11.09;76.12;100882.31;6186958;23;45394;-86
2022/11/28 09:14:10;;;;;;;;;14.75;9.00;;;;;11.07;75.70;100873.56;6149030;23;46106;-93
2022/11/28 09:16:38;;;;;;;;;11.75;8.50;;;;;11.18;75.52;100879.66;6159341;23;45261;-91
2022/11/28 09:19:05;;;;;;;;;5.75;5.75;;;;;11.12;75.67;100862.09;6160968;23;45401;-91
2022/11/28 09:21:44;;;;;;;;;9.50;7.00;;;;;11.18;75.51;100853.31;6185350;23;45424;-90
2022/11/28 09:24:12;;;;;;;;;7.50;6.75;;;;;11.33;75.21;100883.97;6160723;23;47362;-91
2022/11/28 09:26:38;;;;;;;;;9.50;7.75;;;;;11.37;75.01;100889.22;6160421;23;45202;-90
2022/11/28 09:29:04;;;;;;;;;10.50;9.50;;;;;11.25;75.01;100861.19;6160130;23;45450;-86
2022/11/28 09:31:47;;;;;;;;;10.00;6.50;;;;;11.48;74.86;100889.16;6186145;23;45478;-88
2022/11/28 09:38:23;;;;;;;;;9.00;9.00;;;;;11.54;74.34;100899.66;6024090;23;45519;-87
2022/11/28 09:41:29;;;;;;;;;7.75;6.00;;;;;11.57;74.12;100891.75;6053971;23;45412;-85
2022/11/28 09:44:02;;;;;;;;;13.50;10.00;;;;;11.53;73.89;100895.28;6158233;23;45455;-84
2022/11/28 09:46:31;;;;;;;;;5.25;5.00;;;;;11.44;73.87;100879.50;6187301;23;46148;-82
2022/11/28 09:49:01;;;;;;;;;13.25;11.50;;;;;11.44;73.86;100874.22;6183739;23;46218;-80
2022/11/28 09:51:41;;;;;;;;;8.50;7.00;;;;;11.61;73.92;100895.25;6185459;23;45356;-81
2022/11/28 09:54:12;;;;;;;;;6.00;6.00;;;;;11.66;73.79;100896.09;6159249;23;45190;-81
2022/11/28 09:56:38;;;;;;;;;9.00;7.00;;;;;11.70;73.55;100893.44;6185682;23;45487;-81
2022/11/28 09:59:19;;;;;;;;;5.67;4.00;;;;;11.71;73.64;100886.41;6185972;23;45120;-81
2022/11/28 10:01:49;;;;;;;;;7.75;5.50;;;;;11.78;73.22;100893.38;6158826;23;45414;-81
2022/11/28 10:04:23;;;;;;;;;10.00;6.00;;;;;11.77;72.95;100874.94;6158780;23;45194;-81
2022/11/28 10:06:58;;;;;;;;;6.33;6.00;;;;;11.88;73.03;100888.97;6159357;23;46146;-81
2022/11/28 10:09:41;;;;;;;;;6.25;6.25;;;;;11.91;72.97;100894.22;6186194;23;45198;-82
2022/11/28 10:12:24;;;;;;;;;5.67;4.67;;;;;11.84;72.73;100877.53;6186102;23;45345;-80
2022/11/28 10:14:50;;;;;;;;;5.33;5.33;;;;;11.98;72.37;100889.78;6158923;23;45397;-83
2022/11/28 10:17:41;;;;;;;;;7.00;5.00;;;;;12.04;72.40;100889.72;6159074;23;46601;-83
2022/11/28 10:20:17;;;;;;;;;7.50;6.50;;;;;12.21;72.21;100885.19;6185674;23;45145;-78
2022/11/28 10:22:49;;;;;;;;;8.67;7.00;;;;;12.44;72.29;100886.78;6185584;23;45251;-78
2022/11/28 10:25:29;;;;;;;;;6.67;6.33;;;;;13.22;72.73;100889.44;6185994;23;45232;-78
2022/11/28 10:27:55;;;;;;;;;7.67;6.67;;;;;14.06;71.84;100889.19;6158343;23;46966;-78
2022/11/28 10:30:24;;;;;;;;;6.00;4.67;;;;;14.66;69.43;100901.47;6185854;23;45396;-80
2022/11/28 10:33:00;;;;;;;;;5.67;5.67;;;;;15.06;68.47;100884.81;6185680;23;45186;-79
2022/11/28 10:35:30;;;;;;;;;7.67;4.67;;;;;15.73;67.69;100890.47;6186214;23;45449;-79
2022/11/28 10:37:55;;;;;;;;;3.67;3.67;;;;;16.37;66.80;100888.94;6186110;23;45546;-79
2022/11/28 10:40:46;;;;;;;;;8.00;6.33;;;;;17.04;64.92;100877.44;6158572;23;45295;-79
2022/11/28 10:43:42;;;;;;;;;5.67;4.00;;;;;18.08;63.79;100867.16;6186308;23;45236;-79
2022/11/28 10:46:14;;;;;;;;;8.00;5.00;;;;;19.27;61.84;100863.91;6186155;23;45222;-78
2022/11/28 10:48:49;;;;;;;;;4.00;4.00;;;;;20.07;59.14;100860.75;6159046;23;46778;-79
2022/11/28 10:51:39;;;;;;;;;7.67;6.00;;;;;20.80;57.43;100871.97;6186353;23;45143;-83
2022/11/28 10:54:30;;;;;;;;;4.67;3.67;;;;;21.44;55.48;100863.72;6158622;23;45405;-86
2022/11/28 10:57:08;;;;;;;;;5.00;2.00;;;;;22.01;53.71;100867.19;6157319;23;45712;-87
2022/11/28 10:59:52;;;;;;;;;4.00;4.00;;;;;22.17;51.70;100864.63;6184069;23;46153;-84
2022/11/28 11:02:30;;;;;;;;;6.33;4.00;;;;;22.56;51.16;100858.22;6158660;23;45478;-81
2022/11/28 11:04:56;;;;;;;;;8.67;4.00;;;;;23.04;49.76;100861.97;6159663;23;45393;-83
2022/11/28 11:07:29;;;;;;;;;4.33;4.00;;;;;23.03;48.11;100862.91;6148501;23;45640;-86
2022/11/28 11:10:10;;;;;;;;;5.67;3.00;;;;;22.65;47.64;100870.28;6159955;23;47269;-84
2022/11/28 11:12:39;;;;;;;;;3.33;3.33;;;;;22.46;47.20;100865.00;6187686;23;45545;-84
2022/11/28 11:15:36;;;;;;;;;4.67;4.00;;;;;22.50;46.70;100863.88;6159294;23;45399;-84
2022/11/28 11:18:20;;;;;;;;;3.00;3.00;;;;;22.92;46.64;100876.00;6104164;23;45574;-88
2022/11/28 11:20:48;;;;;;;;;5.00;4.00;;;;;23.68;45.87;100879.06;6185828;23;46074;-85
2022/11/28 11:23:23;;;;;;;;;2.67;2.67;;;;;23.36;44.74;100883.50;6158762;23;45236;-84
2022/11/28 11:26:01;;;;;;;;;4.00;2.00;;;;;22.73;44.20;100884.16;6185775;23;45186;-84
2022/11/28 11:28:51;;;;;;;;;3.33;2.00;;;;;21.54;44.19;100878.44;6160572;23;45933;-84
2022/11/28 11:31:42;;;;;;;;;3.67;2.67;;;;;20.75;45.09;100872.19;6187245;23;46323;-86
2022/11/28 11:34:27;;;;;;;;;5.00;4.00;;;;;20.44;46.44;100873.47;6187326;23;45154;-86
2022/11/28 11:37:17;;;;;;;;;3.00;3.00;;;;;20.91;46.42;100870.56;6159699;23;45243;-84
2022/11/28 11:39:50;;;;;;;;;2.33;2.33;;;;;20.49;46.14;100852.75;6188316;23;45391;-85
2022/11/28 11:42:20;;;;;;;;;4.00;4.00;;;;;20.18;46.85;100849.63;6186743;23;47817;-85